Time;durP1;ratioP1;P1;durP2;ratioP2;P2;SDS_P1;SDS_P2;PMS_P1;PMS_P2;Temp;Humidity;BMP_temperature;BMP_pressure;BME280_temperature;BME280_humidity;BME280_pressure;Samples;Min_cycle;Max_cycle;Signal;HPM_P1;HPM_P2
2022/08/25 00:01:48;;;;;;;4.57;4.17;;;;;;;22.40;56.49;101007.81;5042450;28;20207;-80
2022/08/25 00:04:17;;;;;;;4.40;4.00;;;;;;;22.38;56.71;101002.56;5042288;28;20739;-81
2022/08/25 00:06:44;;;;;;;4.20;3.80;;;;;;;22.30;57.11;100999.53;5042725;28;20206;-81
2022/08/25 00:09:15;;;;;;;4.43;3.73;;;;;;;22.30;57.11;100994.19;5041964;28;20206;-81
2022/08/25 00:11:43;;;;;;;5.60;4.03;;;;;;;22.27;57.44;100990.88;5042702;28;20240;-82
2022/08/25 00:14:13;;;;;;;5.83;4.20;;;;;;;22.18;57.09;100994.91;5042714;28;20725;-81
2022/08/25 00:16:40;;;;;;;4.17;3.73;;;;;;;22.05;57.49;100983.25;5043113;28;20217;-80
2022/08/25 00:19:11;;;;;;;4.33;4.00;;;;;;;22.06;57.36;100988.50;5042352;28;20209;-81
2022/08/25 00:21:39;;;;;;;5.50;4.10;;;;;;;22.02;57.66;100984.28;5042186;28;20222;-81
2022/08/25 00:24:08;;;;;;;4.47;4.07;;;;;;;21.97;57.67;100989.03;5056619;28;20253;-81
2022/08/25 00:26:37;;;;;;;3.90;3.60;;;;;;;21.96;57.64;100989.94;5062597;28;20225;-82
2022/08/25 00:29:05;;;;;;;4.00;3.70;;;;;;;21.93;57.60;100988.34;5060738;28;20213;-82
2022/08/25 00:31:33;;;;;;;5.77;4.43;;;;;;;21.87;57.91;100985.19;5061798;28;20205;-83
2022/08/25 00:34:00;;;;;;;4.70;4.30;;;;;;;21.80;58.40;100976.69;5061919;28;20229;-83
2022/08/25 00:36:27;;;;;;;3.90;3.57;;;;;;;21.68;58.88;100951.66;5061713;28;20205;-82
2022/08/25 00:38:53;;;;;;;4.30;3.90;;;;;;;21.65;58.79;100943.91;5050041;28;20297;-83
2022/08/25 00:41:22;;;;;;;4.53;4.00;;;;;;;21.64;58.84;100949.28;5049593;28;20222;-80
2022/08/25 00:43:53;;;;;;;6.47;4.27;;;;;;;21.60;59.06;100952.13;5052974;28;20274;-82
2022/08/25 00:46:23;;;;;;;4.13;3.73;;;;;;;21.58;59.38;100945.19;5058731;28;20209;-81
2022/08/25 00:48:53;;;;;;;4.20;3.77;;;;;;;21.53;59.22;100939.28;5041819;28;20209;-81
2022/08/25 00:51:27;;;;;;;3.83;3.53;;;;;;;21.50;59.57;100934.13;5040101;28;20607;-82
2022/08/25 00:53:54;;;;;;;5.13;4.63;;;;;;;21.45;59.67;100920.25;5053403;28;20290;-82
2022/08/25 00:56:20;;;;;;;4.30;3.90;;;;;;;21.38;60.07;100917.06;5059392;28;20201;-81
2022/08/25 00:58:47;;;;;;;4.60;4.30;;;;;;;21.34;60.25;100918.19;5060004;28;20738;-81
2022/08/25 01:01:13;;;;;;;7.33;4.40;;;;;;;21.30;60.46;100913.97;5059684;28;20796;-83
2022/08/25 01:03:41;;;;;;;4.27;3.97;;;;;;;21.27;60.38;100898.22;5059076;28;20565;-83
2022/08/25 01:06:10;;;;;;;4.30;3.90;;;;;;;21.25;60.48;100914.25;5062507;28;20255;-80
2022/08/25 01:08:37;;;;;;;5.20;4.57;;;;;;;21.20;60.54;100906.53;5062336;28;20212;-81
2022/08/25 01:11:06;;;;;;;5.00;4.60;;;;;;;21.16;61.03;100902.31;5064005;28;20227;-81
2022/08/25 01:13:37;;;;;;;4.47;4.07;;;;;;;21.18;60.68;100907.56;5065332;28;20225;-82
2022/08/25 01:16:04;;;;;;;3.87;3.57;;;;;;;21.20;60.52;100911.84;5065227;28;20216;-82
2022/08/25 01:18:44;;;;;;;4.87;4.47;;;;;;;21.20;60.33;100925.09;5065223;28;20312;-81
2022/08/25 01:21:13;;;;;;;5.67;4.33;;;;;;;21.18;60.75;100919.03;5065087;28;20236;-83
2022/08/25 01:23:40;;;;;;;4.23;3.93;;;;;;;21.13;60.70;100923.75;5064949;28;20229;-80
2022/08/25 01:26:10;;;;;;;5.30;4.80;;;;;;;21.13;60.88;100921.09;5065125;28;20206;-82
2022/08/25 01:29:19;;;;;;;5.57;4.07;;;;;;;21.07;60.75;100913.47;5064674;28;20668;-81
2022/08/25 01:31:24;;;;;;;5.43;4.00;;;;;;;21.07;60.99;100921.44;5063805;28;20201;-83
2022/08/25 01:33:51;;;;;;;4.60;4.20;;;;;;;21.07;60.63;100920.56;5064648;28;20226;-80
2022/08/25 01:36:19;;;;;;;4.93;4.47;;;;;;;21.07;60.54;100928.53;5064368;28;20205;-82
2022/08/25 01:38:45;;;;;;;4.37;3.97;;;;;;;21.05;60.43;100917.13;5066298;28;20213;-81
2022/08/25 01:41:12;;;;;;;4.23;3.87;;;;;;;21.06;60.72;100932.13;5065978;28;20269;-81
2022/08/25 01:43:39;;;;;;;8.33;4.70;;;;;;;21.06;60.18;100929.47;5066387;28;20232;-81
2022/08/25 01:46:05;;;;;;;5.73;4.80;;;;;;;21.01;60.44;100935.91;5066077;28;20201;-83
2022/08/25 01:48:32;;;;;;;5.80;4.53;;;;;;;21.03;60.20;100944.63;5066365;28;20201;-83
2022/08/25 01:50:58;;;;;;;4.63;4.23;;;;;;;21.03;60.20;100949.94;5065309;28;20269;-82
2022/08/25 01:53:29;;;;;;;5.93;5.00;;;;;;;21.02;60.45;100947.38;5065313;28;20271;-81
2022/08/25 01:56:00;;;;;;;5.10;4.67;;;;;;;21.01;60.38;100954.47;5066957;28;20194;-83
2022/08/25 01:58:32;;;;;;;5.50;4.30;;;;;;;21.03;60.01;100949.94;5066184;28;20200;-81
2022/08/25 02:01:01;;;;;;;4.80;4.47;;;;;;;21.05;60.21;100964.91;5065873;28;20209;-81
2022/08/25 02:03:28;;;;;;;4.90;4.50;;;;;;;20.99;60.22;100947.53;5066197;28;20308;-82
2022/08/25 02:05:56;;;;;;;5.23;4.83;;;;;;;20.97;60.51;100941.44;5065909;28;20224;-83
2022/08/25 02:08:24;;;;;;;4.97;4.30;;;;;;;20.95;60.43;100940.66;5066350;28;20213;-83
2022/08/25 02:10:54;;;;;;;5.60;4.90;;;;;;;20.94;60.59;100944.28;5066393;28;20224;-83
2022/08/25 02:13:21;;;;;;;6.70;4.93;;;;;;;20.87;60.83;100935.81;5064738;28;20702;-82
2022/08/25 02:15:50;;;;;;;6.13;5.53;;;;;;;20.84;61.39;100920.03;5061883;28;20256;-83
2022/08/25 02:18:18;;;;;;;4.97;4.57;;;;;;;20.83;61.09;100915.66;5062570;28;20206;-82
2022/08/25 02:20:45;;;;;;;5.87;5.37;;;;;;;20.78;61.97;100899.13;5063435;28;20221;-82
2022/08/25 02:23:12;;;;;;;5.60;5.10;;;;;;;20.75;62.20;100889.56;5064077;28;20213;-82
2022/08/25 02:25:40;;;;;;;7.33;5.37;;;;;;;20.72;62.09;100884.41;5062234;28;20201;-83
2022/08/25 02:28:09;;;;;;;6.60;6.00;;;;;;;20.77;61.97;100893.00;5060995;28;20205;-80
2022/08/25 02:30:36;;;;;;;5.33;4.83;;;;;;;20.76;62.12;100893.06;5061136;28;20206;-80
2022/08/25 02:33:03;;;;;;;5.93;5.43;;;;;;;20.72;62.29;100887.06;5060833;28;20223;-81
2022/08/25 02:35:31;;;;;;;5.43;4.93;;;;;;;20.74;61.86;100893.13;5060277;28;20269;-79
2022/08/25 02:37:57;;;;;;;5.77;5.27;;;;;;;20.74;61.93;100902.91;5060116;28;20209;-82
2022/08/25 02:40:24;;;;;;;6.10;5.60;;;;;;;20.71;61.96;100900.41;5060187;28;20295;-80
2022/08/25 02:42:51;;;;;;;7.17;6.07;;;;;;;20.70;62.38;100893.41;5060374;28;20209;-81
2022/08/25 02:45:19;;;;;;;6.73;6.13;;;;;;;20.69;62.36;100886.38;5061302;28;20659;-82
2022/08/25 02:47:46;;;;;;;8.83;6.30;;;;;;;20.66;62.78;100895.34;5062109;28;20259;-82
2022/08/25 02:50:13;;;;;;;6.57;5.93;;;;;;;20.61;62.49;100886.78;5061425;28;20218;-82
2022/08/25 02:52:40;;;;;;;8.43;6.73;;;;;;;20.60;62.99;100871.81;5062025;28;20218;-81
2022/08/25 02:55:11;;;;;;;6.30;5.80;;;;;;;20.52;63.55;100848.31;5062518;28;20197;-80
2022/08/25 02:57:38;;;;;;;6.53;5.93;;;;;;;20.53;63.23;100849.16;5062218;28;20559;-81
2022/08/25 03:00:06;;;;;;;6.60;6.00;;;;;;;20.47;63.29;100852.16;5062518;28;20726;-82
2022/08/25 03:02:34;;;;;;;7.50;6.80;;;;;;;20.46;63.68;100847.81;5062102;28;20213;-80
2022/08/25 03:05:00;;;;;;;7.37;6.03;;;;;;;20.40;64.32;100830.44;5061683;28;20212;-81
2022/08/25 03:07:27;;;;;;;6.80;6.00;;;;;;;20.36;64.36;100821.78;5061756;28;20746;-81
2022/08/25 03:09:53;;;;;;;7.30;6.57;;;;;;;20.33;64.61;100807.81;5062212;28;20274;-80
2022/08/25 03:12:21;;;;;;;7.20;6.37;;;;;;;20.33;64.79;100802.50;5063582;28;20205;-82
2022/08/25 03:14:47;;;;;;;7.33;6.47;;;;;;;20.30;64.94;100805.34;5063505;28;20229;-83
2022/08/25 03:17:14;;;;;;;6.97;6.40;;;;;;;20.27;64.97;100797.53;5063115;28;20213;-82
2022/08/25 03:19:42;;;;;;;7.93;6.47;;;;;;;20.28;65.10;100805.44;5063109;28;20263;-83
2022/08/25 03:22:09;;;;;;;6.20;5.60;;;;;;;20.17;65.54;100790.06;5062548;28;20306;-82
2022/08/25 03:24:35;;;;;;;6.70;6.10;;;;;;;20.18;65.50;100798.91;5062654;28;20319;-80
2022/08/25 03:27:01;;;;;;;6.23;5.63;;;;;;;20.13;65.70;100777.94;5062569;28;20279;-82
2022/08/25 03:29:30;;;;;;;6.53;5.87;;;;;;;20.15;65.53;100789.31;5062728;28;20206;-83
2022/08/25 03:31:58;;;;;;;6.50;6.00;;;;;;;20.07;66.02;100782.72;5062509;28;20252;-82
2022/08/25 03:34:27;;;;;;;6.47;5.87;;;;;;;19.99;66.48;100772.50;5062903;28;20225;-81
2022/08/25 03:36:56;;;;;;;6.60;6.00;;;;;;;20.02;66.45;100775.88;5062813;28;20268;-83
2022/08/25 03:39:24;;;;;;;7.03;6.33;;;;;;;20.02;66.57;100773.22;5062806;28;20210;-82
2022/08/25 03:41:51;;;;;;;6.50;5.90;;;;;;;19.93;66.89;100764.88;5062728;28;20225;-82
2022/08/25 03:44:20;;;;;;;6.30;5.70;;;;;;;19.96;66.83;100757.63;5062911;28;20226;-83
2022/08/25 03:46:49;;;;;;;7.33;6.57;;;;;;;19.99;66.88;100752.16;5062868;28;20209;-83
2022/08/25 03:49:18;;;;;;;6.83;6.23;;;;;;;19.90;66.99;100757.09;5062951;28;20216;-83
2022/08/25 03:51:48;;;;;;;7.97;6.63;;;;;;;19.86;66.99;100760.84;5062678;28;20255;-84
2022/08/25 03:54:18;;;;;;;6.93;6.37;;;;;;;19.75;67.64;100746.38;5062842;28;20213;-82
2022/08/25 03:56:45;;;;;;;6.30;5.70;;;;;;;19.62;68.21;100734.66;5061938;22;20715;-75
2022/08/25 03:59:12;;;;;;;5.87;5.43;;;;;;;19.56;68.35;100719.09;5012600;28;20636;-75
2022/08/25 04:01:40;;;;;;;6.50;6.00;;;;;;;19.54;68.62;100713.88;5012506;28;20638;-75
2022/08/25 04:04:08;;;;;;;6.80;6.13;;;;;;;19.56;67.66;100732.34;5012478;28;20230;-75
2022/08/25 04:06:35;;;;;;;7.33;5.53;;;;;;;19.47;68.65;100722.25;5012473;28;20256;-75
2022/08/25 04:09:02;;;;;;;7.87;6.03;;;;;;;19.46;68.62;100729.31;5012529;28;20214;-75
2022/08/25 04:11:29;;;;;;;6.70;6.10;;;;;;;19.42;69.21;100727.75;5012469;28;20198;-75
2022/08/25 04:14:01;;;;;;;7.53;6.40;;;;;;;19.41;69.02;100726.06;5012330;28;20230;-75
2022/08/25 04:16:30;;;;;;;7.57;6.23;;;;;;;19.39;68.88;100747.31;5012181;28;20213;-75
2022/08/25 04:18:59;;;;;;;8.33;6.70;;;;;;;19.40;69.08;100733.13;5012204;28;20217;-75
2022/08/25 04:21:26;;;;;;;6.23;5.77;;;;;;;19.29;69.41;100730.19;5012067;28;20230;-74
2022/08/25 04:23:54;;;;;;;6.90;6.30;;;;;;;19.27;69.28;100734.69;5012342;28;20642;-75
2022/08/25 04:26:24;;;;;;;8.20;6.47;;;;;;;19.25;69.44;100737.41;5012086;28;20206;-75
2022/08/25 04:28:51;;;;;;;6.80;6.20;;;;;;;19.24;69.64;100732.19;5004455;28;20259;-75
2022/08/25 04:31:21;;;;;;;5.57;5.17;;;;;;;19.15;69.74;100722.94;5012183;28;20206;-75
2022/08/25 04:33:48;;;;;;;6.03;5.53;;;;;;;19.11;69.83;100716.09;5011860;28;20222;-75
2022/08/25 04:36:17;;;;;;;6.50;5.80;;;;;;;19.09;69.71;100717.94;5012102;28;20264;-75
2022/08/25 04:38:45;;;;;;;6.93;6.33;;;;;;;19.10;70.03;100719.66;5012189;28;20210;-75
2022/08/25 04:41:14;;;;;;;6.80;6.23;;;;;;;19.07;69.96;100716.28;5015437;28;20277;-75
2022/08/25 04:43:42;;;;;;;6.70;6.03;;;;;;;19.00;70.12;100713.09;5016175;28;20235;-75
2022/08/25 04:46:12;;;;;;;6.70;6.20;;;;;;;18.99;70.35;100706.13;5016044;28;20644;-75
2022/08/25 04:48:40;;;;;;;6.33;5.80;;;;;;;19.09;69.86;100714.44;5015928;28;20738;-75
2022/08/25 04:51:08;;;;;;;7.03;6.43;;;;;;;19.07;70.36;100709.25;5015924;28;20206;-74
2022/08/25 04:53:35;;;;;;;7.23;6.57;;;;;;;18.99;70.82;100684.94;5016102;28;20230;-75
2022/08/25 04:56:05;;;;;;;6.83;6.13;;;;;;;19.02;70.68;100687.44;5015835;28;20715;-75
2022/08/25 04:58:31;;;;;;;7.37;6.70;;;;;;;19.01;70.68;100693.66;5015558;28;20242;-75
2022/08/25 05:01:02;;;;;;;9.40;7.37;;;;;;;19.02;70.89;100692.72;5015899;28;20214;-75
2022/08/25 05:03:30;;;;;;;8.30;6.70;;;;;;;19.01;70.89;100698.97;5015860;28;20280;-75
2022/08/25 05:05:57;;;;;;;7.13;6.47;;;;;;;18.98;71.37;100685.88;5014931;28;20209;-75
2022/08/25 05:08:23;;;;;;;11.33;6.63;;;;;;;19.04;71.75;100686.41;5015434;28;20206;-75
2022/08/25 05:10:52;;;;;;;7.60;6.57;;;;;;;19.13;71.34;100684.25;5015435;28;20298;-75
2022/08/25 05:13:18;;;;;;;6.90;6.30;;;;;;;19.19;71.24;100695.38;5015332;28;20230;-75
2022/08/25 05:15:51;;;;;;;6.23;5.73;;;;;;;19.21;71.40;100705.91;5015238;28;20680;-75
2022/08/25 05:18:20;;;;;;;7.10;6.50;;;;;;;19.28;71.33;100707.28;5015631;28;20234;-75
2022/08/25 05:20:48;;;;;;;6.77;6.23;;;;;;;19.33;71.42;100715.00;5014470;28;20199;-75
2022/08/25 05:23:15;;;;;;;6.87;6.13;;;;;;;19.42;72.38;100686.28;5015149;28;20775;-75
2022/08/25 05:25:43;;;;;;;7.07;6.47;;;;;;;19.59;73.27;100656.25;5015395;28;20214;-75
2022/08/25 05:28:10;;;;;;;7.00;6.33;;;;;;;19.68;71.59;100693.75;5015419;28;20206;-75
2022/08/25 05:30:38;;;;;;;7.40;6.90;;;;;;;19.75;71.75;100700.50;5015194;28;20261;-75
2022/08/25 05:33:05;;;;;;;7.57;6.90;;;;;;;19.78;70.90;100717.09;5014801;28;20762;-75
2022/08/25 05:35:31;;;;;;;8.20;6.80;;;;;;;19.70;70.23;100758.09;5005031;28;20632;-75
2022/08/25 05:37:59;;;;;;;8.23;7.57;;;;;;;19.55;71.02;100752.66;5001375;28;20257;-75
2022/08/25 05:40:27;;;;;;;8.83;8.03;;;;;;;19.53;71.41;100721.91;5003622;28;20203;-75
2022/08/25 05:42:53;;;;;;;9.83;8.73;;;;;;;19.58;71.43;100714.56;5003807;28;20227;-75
2022/08/25 05:45:20;;;;;;;9.70;8.87;;;;;;;19.58;71.63;100712.81;5004209;28;20195;-75
2022/08/25 05:47:47;;;;;;;10.00;9.00;;;;;;;19.58;72.05;100699.56;5005515;28;20246;-74
2022/08/25 05:50:14;;;;;;;8.57;7.87;;;;;;;19.60;72.39;100694.16;5005604;28;20214;-75
2022/08/25 05:52:40;;;;;;;9.87;9.07;;;;;;;19.62;72.66;100689.63;5011764;28;20218;-75
2022/08/25 05:55:09;;;;;;;10.30;9.33;;;;;;;19.62;72.85;100673.75;5014408;28;20265;-75
2022/08/25 05:57:36;;;;;;;11.67;9.43;;;;;;;19.66;72.48;100672.66;5004702;28;20454;-75
2022/08/25 06:00:04;;;;;;;10.77;9.43;;;;;;;19.73;72.46;100691.78;5005182;28;20251;-75
2022/08/25 06:02:43;;;;;;;11.50;10.40;;;;;;;19.79;72.29;100691.44;5005822;28;20358;-75
2022/08/25 06:05:11;;;;;;;11.87;10.70;;;;;;;19.84;71.87;100710.56;5003056;28;20676;-75
2022/08/25 06:07:38;;;;;;;11.70;10.67;;;;;;;19.90;72.20;100712.03;5004378;28;20234;-75
2022/08/25 06:10:05;;;;;;;12.20;10.17;;;;;;;19.93;71.82;100726.00;5005028;28;20204;-75
2022/08/25 06:12:35;;;;;;;10.97;9.97;;;;;;;19.95;71.93;100717.97;5002952;28;20204;-75
2022/08/25 06:15:02;;;;;;;11.30;10.30;;;;;;;20.00;71.80;100715.94;5014065;28;20773;-75
2022/08/25 06:17:28;;;;;;;11.13;9.97;;;;;;;20.05;71.84;100719.19;5014032;28;20218;-75
2022/08/25 06:19:54;;;;;;;10.63;9.83;;;;;;;20.09;72.09;100731.31;5007851;28;20253;-75
2022/08/25 06:22:21;;;;;;;11.57;10.50;;;;;;;20.13;71.96;100724.91;5005293;28;20223;-75
2022/08/25 06:24:49;;;;;;;11.20;10.20;;;;;;;20.18;72.17;100714.09;5003827;28;20570;-75
2022/08/25 06:27:15;;;;;;;11.30;10.20;;;;;;;20.22;72.07;100710.31;5004794;28;20254;-75
2022/08/25 06:29:43;;;;;;;10.60;9.60;;;;;;;20.29;72.27;100714.31;5002591;28;20200;-75
2022/08/25 06:32:10;;;;;;;9.53;8.63;;;;;;;20.34;72.62;100719.41;5014136;28;20203;-75
2022/08/25 06:34:36;;;;;;;10.83;9.83;;;;;;;20.37;72.47;100720.06;5013815;28;20227;-75
2022/08/25 06:37:03;;;;;;;10.50;9.63;;;;;;;20.40;71.93;100725.22;5013818;28;20214;-75
2022/08/25 06:39:29;;;;;;;13.50;10.03;;;;;;;20.43;71.82;100743.63;5013663;28;20264;-75
2022/08/25 06:41:56;;;;;;;10.30;9.40;;;;;;;20.51;71.89;100729.91;5003147;28;20227;-75
2022/08/25 06:44:25;;;;;;;11.33;10.23;;;;;;;20.55;71.70;100742.03;5004961;28;20216;-75
2022/08/25 06:46:53;;;;;;;10.63;9.40;;;;;;;20.61;71.25;100741.75;5002676;28;20657;-75
2022/08/25 06:49:20;;;;;;;10.37;9.47;;;;;;;20.66;71.87;100746.81;5002996;28;20199;-75
2022/08/25 06:51:47;;;;;;;10.77;9.73;;;;;;;20.73;71.32;100745.53;5004653;28;20191;-75
2022/08/25 06:54:13;;;;;;;10.63;9.73;;;;;;;20.76;71.25;100760.41;5002955;28;20219;-75
2022/08/25 06:56:41;;;;;;;13.93;10.53;;;;;;;20.83;70.94;100759.09;5002443;28;20211;-75
2022/08/25 06:59:09;;;;;;;11.23;10.33;;;;;;;20.90;70.20;100778.19;4996284;28;20254;-75
2022/08/25 07:01:35;;;;;;;11.43;10.33;;;;;;;20.96;70.33;100789.31;4993751;28;20215;-75
2022/08/25 07:04:05;;;;;;;12.10;10.13;;;;;;;21.01;69.94;100789.91;4993226;28;20258;-75
2022/08/25 07:06:34;;;;;;;12.33;11.23;;;;;;;21.09;69.76;100801.88;4993418;28;20724;-75
2022/08/25 07:09:02;;;;;;;11.93;10.37;;;;;;;21.13;69.47;100801.63;4993682;28;20203;-75
2022/08/25 07:11:32;;;;;;;12.00;10.97;;;;;;;21.20;69.89;100796.81;4993819;28;20265;-75
2022/08/25 07:14:00;;;;;;;11.67;10.57;;;;;;;21.26;69.37;100800.91;5004935;28;20227;-75
2022/08/25 07:16:26;;;;;;;11.13;10.07;;;;;;;21.32;69.61;100800.56;5006172;28;20203;-75
2022/08/25 07:18:55;;;;;;;11.30;10.03;;;;;;;21.37;69.91;100787.88;5001943;28;20669;-75
2022/08/25 07:21:23;;;;;;;15.47;10.27;;;;;;;21.44;70.16;100780.44;5002266;28;20568;-75
2022/08/25 07:23:49;;;;;;;11.33;10.27;;;;;;;21.51;70.05;100776.47;5008384;28;20230;-75
2022/08/25 07:26:19;;;;;;;10.93;9.93;;;;;;;21.59;69.83;100784.84;5006739;28;20211;-75
2022/08/25 07:28:45;;;;;;;11.23;9.53;;;;;;;21.66;69.92;100790.63;5004248;28;20212;-75
2022/08/25 07:31:12;;;;;;;10.60;9.70;;;;;;;21.73;70.24;100781.38;5001650;28;20243;-75
2022/08/25 07:35:13;;;;;;;10.80;9.80;;;;;;;21.80;69.93;100785.34;5002637;28;20215;-75
2022/08/25 07:36:25;;;;;;;11.33;10.23;;;;;;;21.88;70.15;100788.38;5000136;28;20203;-75
2022/08/25 07:38:52;;;;;;;11.30;10.30;;;;;;;21.95;69.94;100796.88;5001172;28;20246;-75
2022/08/25 07:41:18;;;;;;;11.43;10.40;;;;;;;22.03;70.41;100789.25;5002569;28;20199;-75
2022/08/25 07:43:46;;;;;;;12.50;11.20;;;;;;;22.09;70.37;100780.06;5002925;28;20286;-75
2022/08/25 07:46:12;;;;;;;11.70;10.60;;;;;;;22.12;70.98;100772.75;5001234;28;20574;-75
2022/08/25 07:48:39;;;;;;;10.47;9.60;;;;;;;22.12;72.76;100727.56;5002599;28;20230;-75
2022/08/25 07:51:07;;;;;;;11.27;10.27;;;;;;;22.21;72.19;100724.28;5002882;28;20208;-75
2022/08/25 07:53:35;;;;;;;13.17;12.00;;;;;;;22.32;71.26;100755.59;5001930;28;20222;-75
2022/08/25 07:56:01;;;;;;;11.93;10.93;;;;;;;22.43;71.47;100780.66;5004421;28;20207;-75
2022/08/25 07:58:28;;;;;;;12.17;11.27;;;;;;;22.51;71.14;100773.88;5003185;28;20215;-75
2022/08/25 08:00:55;;;;;;;12.93;11.80;;;;;;;22.59;70.91;100792.88;5002770;28;20198;-75
2022/08/25 08:03:21;;;;;;;14.50;12.13;;;;;;;22.66;70.80;100790.69;5002113;28;20763;-75
2022/08/25 08:05:49;;;;;;;12.03;10.83;;;;;;;22.71;70.98;100788.56;5003194;28;20203;-75
2022/08/25 08:08:15;;;;;;;14.17;12.37;;;;;;;22.79;71.01;100793.41;5001509;28;20207;-75
2022/08/25 08:10:43;;;;;;;12.20;11.23;;;;;;;22.83;71.14;100781.59;5001820;28;20554;-75
2022/08/25 08:13:11;;;;;;;11.87;11.07;;;;;;;22.90;71.21;100779.41;5003162;28;20218;-75
2022/08/25 08:15:37;;;;;;;12.27;11.23;;;;;;;22.94;73.18;100714.34;5001490;28;20213;-76
2022/08/25 08:18:04;;;;;;;13.70;12.40;;;;;;;23.02;71.97;100728.03;5001746;28;20567;-76
2022/08/25 08:20:32;;;;;;;12.57;11.47;;;;;;;23.12;71.37;100755.75;5002529;28;20211;-75
2022/08/25 08:22:59;;;;;;;13.33;12.23;;;;;;;23.21;71.32;100762.31;5004388;28;20225;-75
2022/08/25 08:25:26;;;;;;;12.73;11.63;;;;;;;23.28;71.63;100770.72;5002678;28;20204;-76
2022/08/25 08:27:54;;;;;;;12.47;11.23;;;;;;;23.34;71.90;100759.66;5000827;28;20200;-75
2022/08/25 08:30:21;;;;;;;12.37;11.27;;;;;;;23.44;71.39;100762.56;5001651;28;20197;-75
2022/08/25 08:32:48;;;;;;;12.53;11.63;;;;;;;23.50;71.31;100773.63;5002406;28;20206;-75
2022/08/25 08:35:17;;;;;;;12.67;11.57;;;;;;;23.60;71.17;100781.84;5002465;28;20297;-75
2022/08/25 08:37:44;;;;;;;11.83;10.93;;;;;;;23.68;70.89;100792.00;5002293;28;20203;-75
2022/08/25 08:40:14;;;;;;;12.33;11.23;;;;;;;23.75;71.17;100785.31;5000705;28;20203;-75
2022/08/25 08:42:54;;;;;;;11.53;10.43;;;;;;;23.85;71.21;100788.22;5001379;28;20269;-76
2022/08/25 08:45:35;;;;;;;15.37;11.07;;;;;;;23.92;71.01;100797.47;5001430;28;20308;-75
2022/08/25 08:48:14;;;;;;;11.10;10.20;;;;;;;23.97;70.90;100801.53;5001801;28;20196;-75
2022/08/25 08:50:54;;;;;;;11.93;10.77;;;;;;;24.04;70.63;100793.94;5001897;28;20210;-75
2022/08/25 08:53:27;;;;;;;12.03;10.93;;;;;;;24.13;70.43;100795.16;5003959;28;20224;-76
2022/08/25 08:55:56;;;;;;;11.30;10.20;;;;;;;24.21;70.34;100803.47;5000251;28;20211;-76
2022/08/25 08:58:26;;;;;;;12.80;11.20;;;;;;;24.27;70.25;100802.19;5001285;28;20218;-76
2022/08/25 09:00:57;;;;;;;11.30;10.30;;;;;;;24.33;69.39;100812.41;5000566;28;20196;-75
2022/08/25 09:03:33;;;;;;;11.97;10.97;;;;;;;24.42;69.36;100826.91;5003242;28;20305;-75
2022/08/25 09:06:04;;;;;;;11.67;10.60;;;;;;;24.46;69.89;100783.03;4998600;28;20568;-75
2022/08/25 09:08:31;;;;;;;11.87;10.67;;;;;;;24.52;69.36;100799.50;5001628;28;20234;-76
2022/08/25 09:11:03;;;;;;;11.17;10.23;;;;;;;24.61;68.81;100824.66;5002312;28;20211;-75
2022/08/25 09:13:43;;;;;;;13.73;11.10;;;;;;;24.68;69.14;100827.75;5003051;28;20214;-75
2022/08/25 09:19:16;;;;;;;12.20;11.30;;;;;;;24.84;67.89;100846.19;5001914;28;20282;-76
2022/08/25 09:21:50;;;;;;;11.63;10.43;;;;;;;24.90;69.34;100803.88;5003990;28;20242;-76
2022/08/25 09:24:36;;;;;;;11.70;10.70;;;;;;;25.00;68.15;100833.41;5003330;28;20317;-75
2022/08/25 09:27:14;;;;;;;12.20;9.87;;;;;;;25.08;66.11;100888.97;5002929;28;20199;-75
2022/08/25 09:29:54;;;;;;;9.97;9.13;;;;;;;25.14;67.28;100909.88;5007220;28;20250;-75
2022/08/25 09:32:22;;;;;;;11.47;9.33;;;;;;;25.22;65.93;100915.56;5011322;28;20275;-76
2022/08/25 09:34:51;;;;;;;12.13;10.23;;;;;;;25.27;65.32;100932.13;5005612;28;20224;-76
2022/08/25 09:37:17;;;;;;;10.07;9.17;;;;;;;25.37;65.53;100934.94;5004429;28;20201;-76
2022/08/25 09:39:43;;;;;;;10.53;9.40;;;;;;;25.45;63.76;100967.34;4995683;28;20208;-76
2022/08/25 09:42:10;;;;;;;12.77;9.33;;;;;;;25.54;63.99;100977.34;4995276;28;20290;-76
2022/08/25 09:44:42;;;;;;;10.27;9.37;;;;;;;25.63;63.17;100985.63;4995357;28;20235;-76
2022/08/25 09:47:19;;;;;;;10.33;9.33;;;;;;;25.70;63.44;100992.25;4995135;28;20566;-76
2022/08/25 09:49:49;;;;;;;10.77;9.87;;;;;;;25.77;62.94;100999.72;4995105;28;20218;-76
2022/08/25 09:52:22;;;;;;;10.60;9.80;;;;;;;25.83;62.11;101011.78;5010021;28;20273;-76
2022/08/25 09:54:49;;;;;;;12.13;10.93;;;;;;;25.91;61.66;101021.94;5005148;28;20219;-76
2022/08/25 09:57:32;;;;;;;11.27;10.37;;;;;;;25.96;61.99;101025.97;5005384;28;20225;-76
2022/08/25 10:00:11;;;;;;;10.90;10.03;;;;;;;26.03;61.77;100994.28;5005209;28;20199;-76
2022/08/25 10:02:38;;;;;;;12.30;11.30;;;;;;;26.08;61.29;101032.22;5005330;28;20266;-76
2022/08/25 10:05:18;;;;;;;12.60;11.50;;;;;;;26.10;61.00;101029.44;5003695;28;20199;-76
2022/08/25 10:07:51;;;;;;;11.80;10.73;;;;;;;26.10;61.28;101016.91;5005855;28;20272;-76
2022/08/25 10:10:24;;;;;;;11.10;10.30;;;;;;;26.18;61.41;101012.81;5005675;28;20642;-76
2022/08/25 10:12:51;;;;;;;11.40;10.40;;;;;;;26.25;61.11;100995.31;5006506;28;20545;-76
2022/08/25 10:15:19;;;;;;;11.03;10.33;;;;;;;26.35;60.46;101015.06;5007656;28;20672;-76
2022/08/25 10:17:46;;;;;;;10.93;10.13;;;;;;;26.43;59.76;101030.53;5001303;28;20199;-76
2022/08/25 10:20:18;;;;;;;10.67;9.97;;;;;;;26.43;59.71;101050.13;5005748;28;20227;-76
2022/08/25 10:22:46;;;;;;;10.70;9.80;;;;;;;26.44;59.54;101046.50;5004289;28;20230;-76
2022/08/25 10:25:15;;;;;;;10.27;9.57;;;;;;;26.54;59.65;101026.06;5005417;28;20203;-76
2022/08/25 10:27:48;;;;;;;11.10;9.80;;;;;;;26.59;59.78;101004.31;5007489;28;20222;-76
2022/08/25 10:30:19;;;;;;;11.67;9.73;;;;;;;26.66;59.14;101034.13;5002774;28;20205;-76
2022/08/25 10:33:03;;;;;;;10.00;9.20;;;;;;;26.70;58.70;101049.88;5003469;28;20196;-76
2022/08/25 10:35:35;;;;;;;10.20;9.20;;;;;;;26.83;58.69;101039.03;5003586;28;20258;-76
2022/08/25 10:38:17;;;;;;;11.13;10.03;;;;;;;26.89;59.25;101021.63;5001796;28;20204;-76
2022/08/25 10:40:49;;;;;;;10.43;9.67;;;;;;;26.99;59.43;100995.81;5003023;28;20570;-76
2022/08/25 10:43:29;;;;;;;11.20;10.13;;;;;;;27.08;57.43;101056.75;5002414;28;20313;-77
2022/08/25 10:46:05;;;;;;;10.50;9.53;;;;;;;27.11;58.33;101034.19;5002725;28;20222;-76
2022/08/25 10:48:50;;;;;;;10.23;9.30;;;;;;;27.24;57.72;101052.88;5002538;28;20563;-76
2022/08/25 10:51:32;;;;;;;10.07;9.37;;;;;;;27.36;57.57;101046.53;5004476;28;20202;-76
2022/08/25 10:54:06;;;;;;;9.77;8.97;;;;;;;27.61;56.96;101042.72;5004031;28;20210;-76
2022/08/25 10:56:35;;;;;;;10.10;9.37;;;;;;;27.74;55.51;101077.44;5007287;28;20272;-77
2022/08/25 10:59:16;;;;;;;14.00;10.23;;;;;;;27.86;55.63;101119.38;5004632;28;20204;-76
2022/08/25 11:01:56;;;;;;;10.07;9.13;;;;;;;27.99;54.71;101116.59;5002582;28;20250;-76
2022/08/25 11:04:28;;;;;;;9.60;8.70;;;;;;;28.10;53.26;101161.31;5002049;28;20227;-77
2022/08/25 11:07:00;;;;;;;9.77;8.73;;;;;;;28.06;53.88;101162.56;5002331;28;20257;-77
2022/08/25 11:09:32;;;;;;;10.63;9.57;;;;;;;28.11;53.56;101145.09;5002804;28;20203;-76
2022/08/25 11:12:02;;;;;;;10.47;9.43;;;;;;;28.17;53.95;101132.16;5002059;28;20207;-76
2022/08/25 11:14:35;;;;;;;9.50;8.67;;;;;;;28.31;53.56;101121.13;5004506;28;20214;-76
2022/08/25 11:17:12;;;;;;;9.63;8.70;;;;;;;28.42;52.59;101157.81;5035961;22;20739;-79
2022/08/25 11:20:13;;;;;;;10.37;9.03;;;;;;;28.45;53.81;101142.31;4997187;28;20203;-82
2022/08/25 11:22:44;;;;;;;9.97;9.13;;;;;;;28.64;52.51;101151.53;4992029;28;20289;-79
2022/08/25 11:28:55;;;;;;;9.67;8.93;;;;;;;28.97;50.99;101188.16;5042355;22;20650;-80
2022/08/25 11:31:23;;;;;;;10.07;8.93;;;;;;;29.16;51.45;101182.09;5016917;28;20207;-83
2022/08/25 11:33:50;;;;;;;11.23;9.20;;;;;;;29.32;50.25;101203.13;5019037;28;21162;-82
2022/08/25 11:36:25;;;;;;;8.50;7.90;;;;;;;29.29;50.62;101181.88;5031371;28;20205;-81